Time;durP1;ratioP1;P1;durP2;ratioP2;P2;SDS_P1;SDS_P2;PMS_P1;PMS_P2;Temp;Humidity;BMP_temperature;BMP_pressure;BME280_temperature;BME280_humidity;BME280_pressure;Samples;Min_cycle;Max_cycle;Signal;HPM_P1;HPM_P2
2022/04/03 00:04:24;;;;;;;10.40;4.10;;;;;;;0.73;89.32;99957.47;10257014;29;20248;-68
2022/04/03 00:09:27;;;;;;;10.13;4.70;;;;;;;0.65;89.73;99956.44;10256917;28;20594;-68
2022/04/03 00:14:31;;;;;;;11.27;4.40;;;;;;;0.73;90.74;99949.78;10255049;29;20230;-68
2022/04/03 00:19:35;;;;;;;9.17;4.13;;;;;;;0.66;90.10;99947.94;10254502;29;20735;-68
2022/04/03 00:24:39;;;;;;;10.40;3.97;;;;;;;0.65;90.74;99947.09;10254683;29;20298;-70
2022/04/03 00:29:42;;;;;;;10.70;4.33;;;;;;;0.59;88.35;99948.63;10257155;28;20228;-67
2022/04/03 00:34:47;;;;;;;9.37;3.90;;;;;;;0.58;89.26;99952.00;10257296;28;20200;-70
2022/04/03 00:39:50;;;;;;;9.80;4.00;;;;;;;0.50;89.62;99946.72;10256943;28;20216;-68
2022/04/03 00:44:54;;;;;;;10.93;4.37;;;;;;;0.52;90.11;99955.28;10257139;28;20193;-67
2022/04/03 00:49:59;;;;;;;8.20;3.97;;;;;;;0.51;90.62;99957.81;10256898;28;20214;-67
2022/04/03 00:55:03;;;;;;;14.23;4.13;;;;;;;0.44;89.25;99955.94;10256855;28;20203;-70
2022/04/03 01:00:07;;;;;;;12.53;4.17;;;;;;;0.45;89.45;99953.41;10256596;28;20288;-67
2022/04/03 01:05:12;;;;;;;10.00;3.87;;;;;;;0.42;89.68;99962.69;10256465;28;20236;-68
2022/04/03 01:10:15;;;;;;;11.20;3.87;;;;;;;0.37;88.20;99960.03;10256537;28;20634;-68
2022/04/03 01:15:20;;;;;;;10.20;4.27;;;;;;;0.37;88.87;99960.03;10256223;28;20216;-69
2022/04/03 01:20:24;;;;;;;10.40;4.27;;;;;;;0.39;88.70;99965.19;10256409;28;20216;-69
2022/04/03 01:25:30;;;;;;;9.57;3.90;;;;;;;0.37;88.65;99956.63;10256641;28;20282;-68
2022/04/03 01:30:33;;;;;;;11.23;4.47;;;;;;;0.29;89.77;99961.56;10256147;28;20615;-71
2022/04/03 01:35:36;;;;;;;10.30;4.07;;;;;;;0.29;88.78;99959.00;10255926;28;20635;-67
2022/04/03 01:40:41;;;;;;;7.60;3.90;;;;;;;0.30;90.10;99967.50;10255892;28;20244;-67
2022/04/03 01:45:44;;;;;;;9.13;4.43;;;;;;;0.19;91.62;99969.78;10255885;28;20207;-67
2022/04/03 01:50:48;;;;;;;9.30;4.33;;;;;;;0.16;89.84;99981.59;10260717;28;20278;-67
2022/04/03 01:56:00;;;;;;;11.50;4.17;;;;;;;0.16;89.36;99981.59;10263195;28;20534;-68
2022/04/03 02:01:04;;;;;;;9.10;4.37;;;;;;;0.13;90.63;99992.63;10263214;28;20291;-66
2022/04/03 02:06:08;;;;;;;10.67;4.37;;;;;;;0.13;89.28;100001.94;10263297;28;20316;-67
2022/04/03 02:11:12;;;;;;;9.07;4.13;;;;;;;0.08;90.09;99994.19;10262840;28;20200;-66
2022/04/03 02:16:15;;;;;;;12.33;4.23;;;;;;;0.07;88.68;100004.34;10260737;28;20204;-69
2022/04/03 02:21:19;;;;;;;12.17;4.33;;;;;;;-0.03;88.53;99998.13;10259234;29;20219;-65
2022/04/03 02:26:23;;;;;;;9.37;4.13;;;;;;;0.02;89.55;100004.22;10259205;29;20549;-65
2022/04/03 02:31:27;;;;;;;14.77;4.83;;;;;;;-0.06;89.26;100001.50;10258817;29;20527;-66
2022/04/03 02:36:30;;;;;;;11.07;4.67;;;;;;;-0.12;87.17;100006.41;9916642;28;10000338;-62
2022/04/03 02:41:35;;;;;;;10.80;3.87;;;;;;;-0.14;87.34;100014.84;10258377;29;20220;-64
2022/04/03 02:46:38;;;;;;;17.53;5.13;;;;;;;-0.17;86.58;100009.66;10258289;29;20200;-64
2022/04/03 02:51:41;;;;;;;12.23;4.60;;;;;;;-0.22;87.64;100017.19;10258326;28;20541;-67
2022/04/03 02:56:46;;;;;;;11.27;4.50;;;;;;;-0.25;85.70;100021.34;10257918;29;20196;-68
2022/04/03 03:01:49;;;;;;;7.50;3.50;;;;;;;-0.26;85.74;100027.28;10256407;28;20639;-67
2022/04/03 03:06:53;;;;;;;8.53;4.03;;;;;;;-0.30;83.51;100026.34;10257618;29;20236;-68
2022/04/03 03:11:59;;;;;;;8.67;4.20;;;;;;;-0.28;85.10;100027.25;10257266;28;20232;-69
2022/04/03 03:17:03;;;;;;;9.00;4.07;;;;;;;-0.40;84.25;100028.59;10258021;29;20227;-69
2022/04/03 03:22:07;;;;;;;10.33;3.83;;;;;;;-0.41;84.04;100025.16;10260155;28;20356;-69
2022/04/03 03:27:12;;;;;;;10.37;3.97;;;;;;;-0.46;84.18;100025.84;10259805;28;20196;-67
2022/04/03 03:32:15;;;;;;;13.13;5.27;;;;;;;-0.43;84.13;100031.06;10260082;29;20670;-68
2022/04/03 03:37:18;;;;;;;10.13;4.03;;;;;;;-0.50;82.89;100041.88;10259478;29;20255;-68
2022/04/03 03:42:23;;;;;;;8.37;3.43;;;;;;;-0.47;83.10;100040.28;10259105;28;20224;-68
2022/04/03 03:47:26;;;;;;;10.93;4.83;;;;;;;-0.47;82.14;100050.50;10259141;29;20296;-73
2022/04/03 03:52:30;;;;;;;10.77;3.60;;;;;;;-0.53;82.45;100050.28;10258944;29;20235;-66
2022/04/03 03:57:34;;;;;;;14.40;4.93;;;;;;;-0.57;82.53;100050.19;10258664;29;20254;-69
2022/04/03 04:02:38;;;;;;;10.20;4.40;;;;;;;-0.60;83.68;100070.44;10258403;28;20236;-69
2022/04/03 04:07:42;;;;;;;12.00;5.10;;;;;;;-0.63;84.09;100072.91;10258634;29;20234;-67
2022/04/03 04:12:48;;;;;;;10.30;4.83;;;;;;;-0.70;82.00;100076.97;10258289;28;20311;-69
2022/04/03 04:17:54;;;;;;;8.83;4.70;;;;;;;-0.72;82.94;100080.28;10257875;29;20227;-68
2022/04/03 04:22:57;;;;;;;9.13;4.47;;;;;;;-0.75;81.62;100083.63;10257827;29;20228;-68
2022/04/03 04:28:02;;;;;;;11.50;4.63;;;;;;;-0.73;80.91;100089.63;10257690;29;20220;-69
2022/04/03 04:33:06;;;;;;;9.47;4.17;;;;;;;-0.80;80.76;100097.03;10257286;29;20220;-66
2022/04/03 04:38:09;;;;;;;13.57;4.47;;;;;;;-0.75;80.82;100104.00;10257121;29;20303;-68
2022/04/03 04:43:14;;;;;;;15.30;5.23;;;;;;;-0.82;79.44;100101.19;10257389;29;20234;-71
2022/04/03 04:48:17;;;;;;;11.30;4.87;;;;;;;-0.72;80.40;100106.63;10256949;28;20220;-68
2022/04/03 04:53:21;;;;;;;13.00;4.67;;;;;;;-0.69;80.31;100110.97;10256992;28;20220;-70
2022/04/03 04:58:26;;;;;;;10.97;4.13;;;;;;;-0.73;80.57;100120.19;10256442;28;20255;-69
2022/04/03 05:03:30;;;;;;;13.53;4.73;;;;;;;-0.60;80.70;100124.84;10256528;29;20250;-72
2022/04/03 05:08:33;;;;;;;10.03;5.03;;;;;;;-0.56;78.89;100136.84;10256487;29;20220;-71
2022/04/03 05:13:39;;;;;;;9.17;4.63;;;;;;;-0.58;77.85;100143.59;10256971;28;20224;-67
2022/04/03 05:18:42;;;;;;;10.23;4.83;;;;;;;-0.53;77.91;100143.72;10255871;29;20238;-69
2022/04/03 05:23:46;;;;;;;11.57;4.40;;;;;;;-0.45;77.32;100149.94;10258191;28;20224;-74
2022/04/03 05:28:50;;;;;;;10.23;4.27;;;;;;;-0.43;76.71;100154.22;10264317;29;20674;-68
2022/04/03 05:33:55;;;;;;;10.10;4.63;;;;;;;-0.30;78.36;100158.03;10264196;29;20250;-69
2022/04/03 05:38:58;;;;;;;10.83;4.53;;;;;;;-0.26;76.70;100167.50;10264307;28;20372;-68
2022/04/03 05:44:03;;;;;;;15.40;5.30;;;;;;;-0.27;73.48;100161.53;10263780;28;20227;-69
2022/04/03 05:49:07;;;;;;;10.53;4.63;;;;;;;-0.19;74.12;100177.91;10264707;29;20295;-71
2022/04/03 05:54:10;;;;;;;12.07;5.17;;;;;;;-0.17;73.74;100177.94;10263428;29;20232;-69
2022/04/03 05:59:15;;;;;;;10.03;4.40;;;;;;;-0.10;73.36;100188.38;10263374;29;20216;-69
2022/04/03 06:04:19;;;;;;;9.23;4.80;;;;;;;-0.06;72.98;100196.97;10263028;29;20260;-70
2022/04/03 06:09:22;;;;;;;12.07;5.57;;;;;;;-0.07;74.99;100198.66;10263226;29;20607;-66
2022/04/03 06:14:26;;;;;;;13.27;5.03;;;;;;;0.16;72.02;100193.34;10262591;29;20224;-67
2022/04/03 06:19:30;;;;;;;12.13;4.90;;;;;;;0.24;72.88;100202.09;10262535;28;20570;-68
2022/04/03 06:24:33;;;;;;;11.23;5.90;;;;;;;0.25;71.88;100201.28;10262234;29;20228;-72
2022/04/03 06:29:37;;;;;;;13.13;5.37;;;;;;;0.36;72.62;100203.31;10261864;29;20212;-67
2022/04/03 06:34:41;;;;;;;15.43;7.47;;;;;;;0.35;71.69;100196.47;10261530;28;20228;-69
2022/04/03 06:39:44;;;;;;;9.07;4.30;;;;;;;0.37;73.80;100205.03;10261821;28;20216;-68
2022/04/03 06:44:49;;;;;;;11.90;5.23;;;;;;;0.42;73.35;100213.69;10261495;29;20224;-68
2022/04/03 06:49:52;;;;;;;10.83;5.17;;;;;;;0.56;73.74;100226.81;10261106;29;20220;-64
2022/04/03 06:54:55;;;;;;;11.27;4.70;;;;;;;0.54;72.50;100220.81;10260920;29;20238;-65
2022/04/03 07:00:00;;;;;;;11.07;5.30;;;;;;;0.54;71.91;100218.25;10261101;28;20220;-66
2022/04/03 07:05:04;;;;;;;9.10;4.70;;;;;;;0.55;70.44;100227.66;10260863;29;20244;-66
2022/04/03 07:10:09;;;;;;;8.77;4.53;;;;;;;0.67;73.49;100233.09;10260672;28;20543;-66
2022/04/03 07:15:14;;;;;;;10.37;4.73;;;;;;;0.75;72.35;100239.25;10260211;29;20230;-69
2022/04/03 07:20:19;;;;;;;8.97;4.67;;;;;;;0.89;72.38;100238.81;10260356;29;20243;-70
2022/04/03 07:25:23;;;;;;;9.53;4.63;;;;;;;1.00;71.40;100245.06;10259975;29;20234;-69
2022/04/03 07:30:28;;;;;;;12.63;3.83;;;;;;;1.10;71.36;100246.16;10260408;28;20536;-72
2022/04/03 07:35:31;;;;;;;9.00;4.07;;;;;;;1.11;71.28;100248.75;10259331;29;20286;-69
2022/04/03 07:40:34;;;;;;;10.07;4.30;;;;;;;1.18;71.35;100244.66;10259563;29;20220;-68
2022/04/03 07:45:58;;;;;;;7.63;4.03;;;;;;;1.22;69.83;100254.16;10256913;28;20216;-67
2022/04/03 07:51:02;;;;;;;7.90;4.47;;;;;;;1.28;70.27;100246.63;10255851;29;20283;-67
2022/04/03 07:56:08;;;;;;;14.23;6.37;;;;;;;1.41;69.68;100256.31;10255870;29;20234;-69
2022/04/03 08:01:13;;;;;;;7.80;3.90;;;;;;;1.67;70.58;100252.72;10255453;29;20241;-69
2022/04/03 08:06:17;;;;;;;7.70;3.53;;;;;;;1.83;69.62;100251.38;9912714;28;10000592;-67
2022/04/03 08:11:20;;;;;;;9.20;3.63;;;;;;;1.98;70.40;100252.56;10255695;29;20308;-70
2022/04/03 08:16:25;;;;;;;8.10;4.20;;;;;;;2.12;69.84;100258.84;10254726;29;20250;-69
2022/04/03 08:21:28;;;;;;;7.20;3.67;;;;;;;2.23;69.91;100270.19;10254530;28;20717;-68
2022/04/03 08:26:32;;;;;;;24.63;10.43;;;;;;;2.13;67.70;100268.25;10254703;29;20272;-70
2022/04/03 08:31:36;;;;;;;8.63;4.33;;;;;;;2.31;69.01;100271.19;10254360;29;20230;-66
2022/04/03 08:36:40;;;;;;;11.10;3.60;;;;;;;2.47;67.60;100271.53;10254049;29;20220;-69
2022/04/03 08:41:43;;;;;;;8.23;3.97;;;;;;;2.58;67.03;100277.72;10253895;28;20231;-71
2022/04/03 08:46:49;;;;;;;7.63;2.87;;;;;;;2.65;65.86;100280.47;10253741;28;20220;-68
2022/04/03 08:51:52;;;;;;;8.10;3.47;;;;;;;2.77;63.97;100274.69;10253687;28;20568;-70
2022/04/03 08:56:56;;;;;;;7.70;3.70;;;;;;;2.87;64.53;100271.47;10252847;28;20227;-70
2022/04/03 09:02:00;;;;;;;8.00;3.40;;;;;;;3.05;64.66;100267.56;10252424;28;20216;-68
2022/04/03 09:07:04;;;;;;;5.27;2.63;;;;;;;3.29;63.04;100265.44;10252024;29;20273;-68
2022/04/03 09:12:09;;;;;;;5.70;2.80;;;;;;;3.61;61.63;100270.25;10253005;28;20249;-68
2022/04/03 09:17:32;;;;;;;6.37;2.87;;;;;;;3.77;59.70;100265.38;10253042;29;20299;-68
2022/04/03 09:22:38;;;;;;;8.33;2.97;;;;;;;4.16;60.95;100268.50;10253577;29;20231;-70
2022/04/03 09:27:48;;;;;;;6.73;3.07;;;;;;;4.61;60.92;100260.53;10252929;29;20716;-69
2022/04/03 09:32:55;;;;;;;10.77;5.57;;;;;;;5.51;57.87;100261.47;10252833;29;20234;-65
2022/04/03 09:38:15;;;;;;;7.60;2.97;;;;;;;6.59;53.79;100263.09;10252881;29;20231;-65
2022/04/03 09:43:21;;;;;;;5.83;2.70;;;;;;;7.76;52.61;100262.44;10252576;29;20223;-64
2022/04/03 09:48:29;;;;;;;7.53;3.10;;;;;;;8.09;49.58;100254.66;10252760;29;20278;-66
2022/04/03 09:53:46;;;;;;;8.33;2.80;;;;;;;9.20;50.33;100251.63;10251922;29;20220;-64
2022/04/03 09:58:58;;;;;;;6.73;2.70;;;;;;;10.01;49.10;100259.63;10252946;28;20230;-68
2022/04/03 10:04:04;;;;;;;5.20;2.40;;;;;;;9.15;48.28;100253.38;10252182;29;20252;-68
2022/04/03 10:09:11;;;;;;;5.87;2.47;;;;;;;9.48;47.52;100252.28;10253326;28;20234;-67
2022/04/03 10:14:15;;;;;;;8.23;2.77;;;;;;;10.48;45.81;100255.69;10259378;29;20245;-68
2022/04/03 10:19:20;;;;;;;6.13;2.10;;;;;;;10.26;46.75;100254.22;10260328;29;20674;-72
2022/04/03 10:24:25;;;;;;;5.00;2.40;;;;;;;9.29;43.98;100256.75;10262088;28;20231;-67
2022/04/03 10:29:32;;;;;;;4.27;1.77;;;;;;;10.91;44.24;100248.22;10262248;29;20307;-69
2022/04/03 10:34:47;;;;;;;4.27;2.10;;;;;;;9.84;43.93;100253.72;10261808;29;20224;-69
2022/04/03 10:39:52;;;;;;;6.90;2.00;;;;;;;8.95;46.77;100255.25;10259677;28;20306;-66
2022/04/03 10:45:21;;;;;;;4.60;2.10;;;;;;;9.88;44.89;100256.28;10261548;29;20661;-68
2022/04/03 10:50:25;;;;;;;7.60;3.00;;;;;;;8.87;44.94;100256.16;10261826;29;20228;-67
2022/04/03 10:55:35;;;;;;;5.10;2.50;;;;;;;9.27;47.00;100253.31;10261193;28;20316;-68
2022/04/03 11:00:40;;;;;;;4.57;2.17;;;;;;;11.32;43.27;100243.31;10260959;28;20220;-69
2022/04/03 11:05:46;;;;;;;5.20;2.13;;;;;;;12.39;38.19;100236.25;10260890;28;20329;-69
2022/04/03 11:10:54;;;;;;;4.73;2.10;;;;;;;13.10;40.13;100232.19;10259092;28;20299;-67
2022/04/03 11:16:01;;;;;;;7.37;1.97;;;;;;;11.68;39.85;100241.06;10257643;29;20224;-68
2022/04/03 11:21:09;;;;;;;6.57;2.57;;;;;;;12.65;40.67;100235.75;10259328;28;20303;-70
2022/04/03 11:26:13;;;;;;;6.67;2.80;;;;;;;11.91;39.50;100241.53;10259666;28;20240;-68
2022/04/03 11:31:16;;;;;;;4.90;2.00;;;;;;;12.91;38.15;100233.44;10259620;28;20302;-68
2022/04/03 11:36:25;;;;;;;5.43;2.40;;;;;;;12.08;38.70;100229.91;10259594;28;20224;-68
2022/04/03 11:41:34;;;;;;;5.83;2.20;;;;;;;13.80;35.77;100223.56;10259444;28;20670;-67
2022/04/03 11:46:41;;;;;;;4.83;2.40;;;;;;;14.97;34.15;100215.06;10258978;29;20239;-68
2022/04/03 11:51:48;;;;;;;5.90;2.97;;;;;;;15.61;35.62;100206.06;10259084;28;20231;-67
2022/04/03 11:56:51;;;;;;;6.07;2.63;;;;;;;14.98;34.38;100198.47;10258955;28;20662;-66
2022/04/03 12:01:55;;;;;;;5.73;3.00;;;;;;;13.68;36.76;100221.25;10258825;28;20216;-67
2022/04/03 12:06:59;;;;;;;6.33;2.80;;;;;;;12.88;38.01;100211.81;10258015;28;20232;-68
2022/04/03 12:12:04;;;;;;;7.63;3.80;;;;;;;13.43;38.65;100212.31;10259171;28;20220;-67
2022/04/03 12:17:09;;;;;;;4.53;2.27;;;;;;;13.72;37.09;100202.00;10254388;29;20220;-66
2022/04/03 12:22:15;;;;;;;8.33;2.53;;;;;;;14.10;35.72;100203.66;10255854;29;20220;-68
2022/04/03 12:27:22;;;;;;;7.03;4.20;;;;;;;11.89;38.91;100197.31;10256523;28;20216;-68
2022/04/03 12:32:35;;;;;;;6.37;2.60;;;;;;;11.12;39.95;100206.38;10253443;28;20224;-66
2022/04/03 12:37:41;;;;;;;6.23;2.57;;;;;;;11.50;38.73;100193.66;10254437;29;20220;-68
2022/04/03 12:42:46;;;;;;;6.90;2.40;;;;;;;11.28;41.22;100200.09;10255062;28;20259;-69
2022/04/03 12:47:58;;;;;;;5.27;2.03;;;;;;;10.16;41.06;100202.47;10253326;29;20219;-68
2022/04/03 12:53:05;;;;;;;8.17;2.37;;;;;;;9.43;43.55;100204.84;10257000;29;20228;-70
2022/04/03 12:58:32;;;;;;;7.53;2.40;;;;;;;9.00;44.89;100209.47;10256380;29;20255;-69
2022/04/03 13:03:37;;;;;;;7.13;2.30;;;;;;;11.48;40.31;100200.63;10256011;28;20322;-69
2022/04/03 13:08:46;;;;;;;5.20;2.33;;;;;;;15.41;34.82;100184.91;10255816;29;20607;-69
2022/04/03 13:13:49;;;;;;;5.77;2.43;;;;;;;12.43;37.63;100188.47;10255951;28;20302;-67
2022/04/03 13:18:52;;;;;;;4.97;2.30;;;;;;;10.18;41.21;100201.53;10256164;28;20216;-68
2022/04/03 13:23:57;;;;;;;5.53;2.37;;;;;;;9.30;41.25;100206.66;10255329;28;20654;-67
2022/04/03 13:29:21;;;;;;;4.57;2.20;;;;;;;8.93;41.54;100205.22;10255457;29;20255;-69
2022/04/03 13:34:24;;;;;;;4.33;2.10;;;;;;;8.94;42.22;100206.91;10255695;29;20282;-69
2022/04/03 13:39:29;;;;;;;4.50;2.20;;;;;;;8.32;43.65;100205.50;10255341;28;20730;-68
2022/04/03 13:44:32;;;;;;;4.80;2.10;;;;;;;7.83;43.85;100205.63;10255082;28;20674;-67
2022/04/03 13:49:35;;;;;;;6.70;3.40;;;;;;;7.76;43.52;100221.09;10263153;29;20274;-68
2022/04/03 13:54:41;;;;;;;5.20;2.30;;;;;;;8.24;43.70;100213.28;10263147;29;20299;-68
2022/04/03 13:59:44;;;;;;;5.50;2.13;;;;;;;8.59;42.76;100214.03;10263146;28;20299;-68
2022/04/03 14:04:47;;;;;;;9.80;4.20;;;;;;;7.70;42.98;100219.38;10262628;28;20690;-70
2022/04/03 14:09:54;;;;;;;3.97;1.83;;;;;;;7.59;43.29;100215.94;10262680;29;20663;-68
2022/04/03 14:14:58;;;;;;;6.27;3.50;;;;;;;8.52;42.59;100207.16;10262449;28;20555;-74
2022/04/03 14:20:02;;;;;;;4.80;2.20;;;;;;;9.13;42.13;100205.06;10261362;28;20274;-66
2022/04/03 14:25:10;;;;;;;5.47;1.90;;;;;;;8.80;40.38;100197.53;10259213;28;20310;-68
2022/04/03 14:30:14;;;;;;;5.30;1.87;;;;;;;7.99;42.20;100206.41;10258745;28;20212;-68
2022/04/03 14:35:18;;;;;;;5.67;2.10;;;;;;;8.31;42.90;100202.06;10258888;28;20250;-66
2022/04/03 14:40:23;;;;;;;6.53;2.40;;;;;;;9.58;41.73;100199.53;10258999;28;20243;-66
2022/04/03 14:45:26;;;;;;;4.20;1.90;;;;;;;10.66;39.79;100184.53;10257532;28;20244;-66
2022/04/03 14:50:30;;;;;;;5.10;2.13;;;;;;;10.58;38.16;100188.97;10257108;28;20613;-65
2022/04/03 14:55:35;;;;;;;4.37;2.10;;;;;;;9.81;40.66;100205.38;9914794;28;10000083;-67
2022/04/03 15:00:38;;;;;;;6.50;1.70;;;;;;;8.55;40.95;100201.97;10258256;29;20232;-67
2022/04/03 15:05:44;;;;;;;7.23;3.60;;;;;;;8.14;42.58;100202.06;10255548;28;20315;-66
2022/04/03 15:10:48;;;;;;;4.70;2.00;;;;;;;8.14;42.90;100198.63;10256269;28;20244;-73
2022/04/03 15:15:52;;;;;;;7.57;3.00;;;;;;;7.87;43.54;100193.53;10257243;28;20224;-71
2022/04/03 15:20:55;;;;;;;5.30;1.90;;;;;;;7.73;43.21;100200.47;10258808;28;20328;-70
2022/04/03 15:26:00;;;;;;;4.67;1.90;;;;;;;7.54;44.81;100198.75;10259797;29;20220;-68
2022/04/03 15:31:04;;;;;;;7.37;2.30;;;;;;;8.43;43.98;100189.09;10259840;29;20216;-73
2022/04/03 15:36:07;;;;;;;8.53;1.90;;;;;;;8.66;41.86;100201.91;10259800;28;20251;-71
2022/04/03 15:41:13;;;;;;;5.17;1.90;;;;;;;8.01;42.94;100204.69;10259359;28;20840;-70
2022/04/03 15:46:17;;;;;;;10.53;3.00;;;;;;;7.58;44.57;100210.78;10259623;28;20238;-67
2022/04/03 15:51:22;;;;;;;4.83;2.23;;;;;;;7.27;45.76;100211.63;10258953;29;20196;-70
2022/04/03 15:56:28;;;;;;;6.47;1.73;;;;;;;6.83;46.45;100217.59;10258919;28;20275;-69
2022/04/03 16:01:32;;;;;;;5.27;1.53;;;;;;;6.66;45.44;100229.56;10259053;29;20275;-72
2022/04/03 16:06:35;;;;;;;7.13;1.90;;;;;;;6.77;45.75;100229.59;10258035;28;20740;-69
2022/04/03 16:11:40;;;;;;;6.37;2.37;;;;;;;6.50;46.48;100235.53;10257249;29;20206;-66
2022/04/03 16:16:44;;;;;;;10.40;3.93;;;;;;;6.33;47.64;100239.78;10255535;28;20227;-68
2022/04/03 16:21:48;;;;;;;5.63;1.97;;;;;;;6.38;47.33;100238.06;10255050;28;20196;-68
2022/04/03 16:26:54;;;;;;;4.67;1.80;;;;;;;6.35;49.01;100240.59;10255266;28;20307;-68
2022/04/03 16:31:57;;;;;;;4.97;1.70;;;;;;;6.33;46.98;100249.22;10254983;28;20581;-71
2022/04/03 16:37:01;;;;;;;7.03;2.47;;;;;;;6.36;46.91;100252.66;10254461;28;20201;-67
2022/04/03 16:42:06;;;;;;;7.63;2.47;;;;;;;6.23;47.76;100250.84;10254017;28;20287;-67
2022/04/03 16:47:09;;;;;;;6.60;2.20;;;;;;;6.03;46.26;100264.47;9911719;28;10000025;-70
2022/04/03 16:52:13;;;;;;;4.60;1.90;;;;;;;5.88;45.91;100256.66;10253641;28;20710;-70
2022/04/03 16:57:17;;;;;;;4.10;1.50;;;;;;;5.71;47.15;100261.66;10253891;29;20246;-67
2022/04/03 17:02:21;;;;;;;6.17;1.87;;;;;;;5.45;47.32;100270.88;10253614;29;20227;-69
2022/04/03 17:07:26;;;;;;;8.63;1.70;;;;;;;5.41;50.70;100276.81;10253673;29;20525;-69
2022/04/03 17:12:30;;;;;;;5.93;2.13;;;;;;;5.31;49.05;100275.91;10253394;29;20220;-67
2022/04/03 17:17:33;;;;;;;5.40;2.10;;;;;;;5.08;49.03;100292.78;10253001;29;20220;-67
2022/04/03 17:22:37;;;;;;;6.30;2.10;;;;;;;4.96;48.83;100291.78;10251987;28;20224;-68
2022/04/03 17:27:42;;;;;;;4.70;2.00;;;;;;;4.85;50.90;100303.69;10252948;28;20322;-68
2022/04/03 17:32:46;;;;;;;6.70;2.00;;;;;;;4.74;49.16;100304.38;10252828;28;20224;-68
2022/04/03 17:37:50;;;;;;;6.30;1.87;;;;;;;4.73;49.58;100305.25;10253321;29;20219;-69
2022/04/03 17:42:55;;;;;;;5.40;2.20;;;;;;;4.60;51.05;100311.09;10252790;28;20248;-68
2022/04/03 17:47:58;;;;;;;4.97;2.07;;;;;;;4.47;50.92;100322.03;10252245;29;20224;-68
2022/04/03 17:53:03;;;;;;;4.90;1.77;;;;;;;4.38;50.97;100332.19;10252452;28;20255;-68
2022/04/03 17:58:09;;;;;;;5.40;2.07;;;;;;;4.27;51.80;100327.75;10253106;28;20251;-67
2022/04/03 18:03:14;;;;;;;4.43;2.20;;;;;;;4.34;52.14;100322.72;10252690;29;20726;-70
2022/04/03 18:08:20;;;;;;;4.17;1.80;;;;;;;4.15;51.78;100331.00;10252616;29;20232;-72
2022/04/03 18:13:24;;;;;;;4.90;1.97;;;;;;;4.12;53.88;100335.22;10252092;28;20235;-73
2022/04/03 18:18:28;;;;;;;5.87;2.00;;;;;;;4.09;51.71;100341.16;10252184;28;20632;-74
2022/04/03 18:23:33;;;;;;;6.00;1.80;;;;;;;4.09;53.41;100342.88;10252168;29;20221;-72
2022/04/03 18:28:38;;;;;;;5.73;1.70;;;;;;;4.09;51.69;100343.72;10252521;29;20247;-71
2022/04/03 18:33:43;;;;;;;8.63;3.73;;;;;;;4.00;54.14;100345.31;10259781;28;20323;-74
2022/04/03 18:38:47;;;;;;;6.70;1.97;;;;;;;3.96;54.61;100340.97;10258528;29;20670;-71
2022/04/03 18:43:52;;;;;;;6.60;2.53;;;;;;;3.90;54.44;100346.84;10258228;29;20220;-73
2022/04/03 18:48:56;;;;;;;8.00;2.70;;;;;;;3.90;54.35;100348.56;10258709;29;20224;-71
2022/04/03 18:53:59;;;;;;;6.20;2.77;;;;;;;3.87;61.40;100357.06;10258401;29;20724;-74
2022/04/03 18:59:05;;;;;;;7.30;3.00;;;;;;;3.89;56.57;100360.53;10257991;29;20220;-71
2022/04/03 19:04:09;;;;;;;14.00;4.90;;;;;;;3.97;56.37;100360.66;10258752;29;20270;-71
2022/04/03 19:09:12;;;;;;;7.23;2.60;;;;;;;3.99;55.70;100359.84;10257501;28;20237;-72
2022/04/03 19:14:18;;;;;;;7.43;2.80;;;;;;;4.08;57.06;100366.81;10257419;29;20343;-71
2022/04/03 19:19:22;;;;;;;10.63;3.30;;;;;;;4.03;55.48;100366.75;10257613;29;20239;-75
2022/04/03 19:24:26;;;;;;;12.33;3.60;;;;;;;4.07;56.15;100362.53;10257101;29;20557;-76
2022/04/03 19:29:32;;;;;;;8.70;3.53;;;;;;;4.09;57.79;100360.88;10256918;29;20287;-69
2022/04/03 19:34:35;;;;;;;8.13;3.50;;;;;;;4.08;56.97;100365.13;10258985;29;20654;-70
2022/04/03 19:39:39;;;;;;;11.70;3.80;;;;;;;4.12;60.69;100368.63;10256645;29;20224;-74
2022/04/03 19:44:43;;;;;;;14.33;4.53;;;;;;;4.11;60.38;100372.00;10255284;28;20228;-70
2022/04/03 19:49:46;;;;;;;11.63;4.50;;;;;;;4.06;59.22;100364.22;10256367;28;20243;-72
2022/04/03 19:54:50;;;;;;;12.23;5.70;;;;;;;4.13;59.41;100370.31;10255952;28;20220;-73
2022/04/03 19:59:54;;;;;;;15.47;5.50;;;;;;;4.14;58.51;100365.22;10255874;28;20547;-70
2022/04/03 20:04:58;;;;;;;13.57;6.00;;;;;;;4.13;58.70;100365.19;10257541;28;20242;-72
2022/04/03 20:10:02;;;;;;;14.03;6.90;;;;;;;4.16;61.45;100373.81;10255221;28;20558;-73
2022/04/03 20:15:08;;;;;;;17.73;6.10;;;;;;;4.15;60.03;100369.53;10255325;28;20558;-70
2022/04/03 20:20:12;;;;;;;18.83;7.43;;;;;;;4.13;59.21;100376.34;10255076;29;20655;-73
2022/04/03 20:25:16;;;;;;;14.93;6.50;;;;;;;4.00;58.89;100365.84;10254671;28;20315;-71
2022/04/03 20:30:21;;;;;;;14.53;6.50;;;;;;;3.95;60.19;100373.44;10254898;28;20363;-71
2022/04/03 20:35:26;;;;;;;17.93;6.47;;;;;;;3.90;60.19;100372.53;10255142;29;20235;-74
2022/04/03 20:40:30;;;;;;;15.03;7.13;;;;;;;3.90;60.11;100377.66;10257643;29;20693;-73
2022/04/03 20:45:36;;;;;;;14.23;6.13;;;;;;;3.91;61.05;100378.53;10254566;28;20223;-71
2022/04/03 20:50:40;;;;;;;54.20;27.70;;;;;;;3.93;61.04;100379.41;10254212;28;20311;-71
2022/04/03 20:55:44;;;;;;;11.67;5.70;;;;;;;3.77;62.05;100378.28;10254564;28;20224;-72
2022/04/03 21:00:49;;;;;;;10.73;5.07;;;;;;;3.71;62.71;100378.19;10254326;28;20663;-72
2022/04/03 21:05:53;;;;;;;11.60;5.27;;;;;;;3.65;63.41;100374.66;10254191;29;20716;-73
2022/04/03 21:10:56;;;;;;;12.93;5.70;;;;;;;3.45;64.29;100387.13;10258090;29;20230;-71
2022/04/03 21:16:01;;;;;;;13.97;5.03;;;;;;;3.42;64.75;100379.34;10254056;28;20226;-73
2022/04/03 21:21:04;;;;;;;38.67;16.87;;;;;;;3.42;65.61;100393.06;10253589;29;20224;-71
2022/04/03 21:26:08;;;;;;;14.20;5.47;;;;;;;3.36;66.30;100386.94;10253707;28;20303;-74
2022/04/03 21:31:12;;;;;;;12.23;4.87;;;;;;;3.40;66.47;100383.59;10253565;29;20613;-75
2022/04/03 21:36:16;;;;;;;10.23;4.60;;;;;;;3.38;65.98;100385.28;10253593;28;20358;-74
2022/04/03 21:41:19;;;;;;;16.13;4.60;;;;;;;3.34;66.52;100386.06;10261028;29;20709;-71
2022/04/03 21:46:24;;;;;;;11.33;3.90;;;;;;;3.27;65.55;100386.78;10253334;28;20220;-72
2022/04/03 21:51:27;;;;;;;16.67;5.13;;;;;;;3.40;67.27;100393.84;10253471;28;20287;-71
2022/04/03 21:56:31;;;;;;;11.57;4.60;;;;;;;3.39;67.88;100397.25;10253087;29;20283;-75
2022/04/03 22:01:38;;;;;;;12.70;4.83;;;;;;;3.29;67.55;100403.06;10253255;29;20193;-76
2022/04/03 22:06:41;;;;;;;10.43;4.33;;;;;;;3.19;67.83;100404.56;10256593;28;20554;-71
2022/04/03 22:11:45;;;;;;;8.87;4.27;;;;;;;3.17;67.19;100400.25;10262716;29;20283;-71
2022/04/03 22:16:50;;;;;;;13.63;4.60;;;;;;;3.18;67.96;100407.09;10263670;29;20287;-73
2022/04/03 22:21:53;;;;;;;11.13;3.93;;;;;;;3.22;67.76;100404.63;10260773;29;20639;-74
2022/04/03 22:26:56;;;;;;;32.93;11.80;;;;;;;3.15;67.73;100407.03;10259440;29;20220;-67
2022/04/03 22:32:01;;;;;;;10.97;5.27;;;;;;;3.29;68.28;100405.63;10259440;28;20631;-69
2022/04/03 22:37:06;;;;;;;14.03;5.00;;;;;;;3.20;67.92;100401.19;10259615;29;20204;-70
2022/04/03 22:42:10;;;;;;;10.83;4.53;;;;;;;3.19;67.46;100396.88;10259256;29;20234;-70
2022/04/03 22:47:15;;;;;;;13.37;4.73;;;;;;;3.14;67.98;100389.94;10262945;29;20211;-72
2022/04/03 22:52:18;;;;;;;11.43;4.87;;;;;;;3.20;67.97;100387.47;10261556;29;20206;-71
2022/04/03 22:57:21;;;;;;;16.43;7.43;;;;;;;3.03;69.02;100386.28;10259399;28;20258;-68
2022/04/03 23:02:27;;;;;;;11.03;3.93;;;;;;;3.04;68.38;100391.44;10259082;29;20200;-70
2022/04/03 23:07:31;;;;;;;11.37;4.70;;;;;;;3.11;67.80;100389.84;10259151;29;20224;-73
2022/04/03 23:12:34;;;;;;;12.17;4.53;;;;;;;3.01;66.29;100393.06;10259218;28;20197;-76
2022/04/03 23:17:39;;;;;;;13.87;4.50;;;;;;;2.91;66.95;100391.16;10260945;28;20220;-73
2022/04/03 23:22:42;;;;;;;12.77;4.63;;;;;;;2.99;66.88;100387.03;10257775;28;20230;-74
2022/04/03 23:27:47;;;;;;;11.40;4.43;;;;;;;2.94;66.93;100388.66;10257577;29;20236;-74